sensor_id;sensor_type;location;lat;lon;timestamp;P1;durP1;ratioP1;P2;durP2;ratioP2
21426;SDS011;10874;49.452;11.050;2023-04-03T00:00:59;2.73;;;1.73;;
21426;SDS011;10874;49.452;11.050;2023-04-03T00:03:26;2.20;;;2.00;;
21426;SDS011;10874;49.452;11.050;2023-04-03T00:05:52;1.97;;;1.80;;
21426;SDS011;10874;49.452;11.050;2023-04-03T00:08:19;1.87;;;1.50;;
21426;SDS011;10874;49.452;11.050;2023-04-03T00:10:46;2.67;;;1.60;;
21426;SDS011;10874;49.452;11.050;2023-04-03T00:13:13;2.73;;;1.77;;
21426;SDS011;10874;49.452;11.050;2023-04-03T00:15:40;3.80;;;2.00;;
21426;SDS011;10874;49.452;11.050;2023-04-03T00:18:07;1.70;;;1.60;;
21426;SDS011;10874;49.452;11.050;2023-04-03T00:20:33;1.80;;;1.70;;
21426;SDS011;10874;49.452;11.050;2023-04-03T00:23:01;2.33;;;1.80;;
21426;SDS011;10874;49.452;11.050;2023-04-03T00:25:28;3.27;;;1.70;;
21426;SDS011;10874;49.452;11.050;2023-04-03T00:27:55;1.63;;;1.53;;
21426;SDS011;10874;49.452;11.050;2023-04-03T00:30:21;2.40;;;1.83;;
21426;SDS011;10874;49.452;11.050;2023-04-03T00:32:48;1.93;;;1.63;;
21426;SDS011;10874;49.452;11.050;2023-04-03T00:35:16;2.27;;;1.63;;
21426;SDS011;10874;49.452;11.050;2023-04-03T00:37:43;1.97;;;1.60;;
21426;SDS011;10874;49.452;11.050;2023-04-03T00:40:10;2.40;;;1.73;;
21426;SDS011;10874;49.452;11.050;2023-04-03T00:42:39;1.70;;;1.60;;
21426;SDS011;10874;49.452;11.050;2023-04-03T00:47:39;2.30;;;2.00;;
21426;SDS011;10874;49.452;11.050;2023-04-03T00:50:07;1.93;;;1.73;;
21426;SDS011;10874;49.452;11.050;2023-04-03T00:52:34;2.33;;;1.90;;
21426;SDS011;10874;49.452;11.050;2023-04-03T00:55:02;1.60;;;1.50;;
21426;SDS011;10874;49.452;11.050;2023-04-03T00:57:30;2.30;;;1.70;;
21426;SDS011;10874;49.452;11.050;2023-04-03T00:59:59;1.70;;;1.60;;
21426;SDS011;10874;49.452;11.050;2023-04-03T01:02:27;2.27;;;1.70;;
21426;SDS011;10874;49.452;11.050;2023-04-03T01:04:54;2.07;;;1.87;;
21426;SDS011;10874;49.452;11.050;2023-04-03T01:07:22;2.20;;;1.97;;
21426;SDS011;10874;49.452;11.050;2023-04-03T01:09:51;2.00;;;1.80;;
21426;SDS011;10874;49.452;11.050;2023-04-03T01:14:54;2.47;;;2.00;;
21426;SDS011;10874;49.452;11.050;2023-04-03T01:17:38;2.00;;;1.80;;
21426;SDS011;10874;49.452;11.050;2023-04-03T01:22:54;1.90;;;1.77;;
21426;SDS011;10874;49.452;11.050;2023-04-03T01:25:23;2.23;;;1.73;;
21426;SDS011;10874;49.452;11.050;2023-04-03T01:27:50;2.53;;;2.00;;
21426;SDS011;10874;49.452;11.050;2023-04-03T01:30:18;2.20;;;2.00;;
21426;SDS011;10874;49.452;11.050;2023-04-03T01:32:45;1.60;;;1.50;;
21426;SDS011;10874;49.452;11.050;2023-04-03T01:35:12;2.30;;;1.30;;
21426;SDS011;10874;49.452;11.050;2023-04-03T01:37:39;1.70;;;1.50;;
21426;SDS011;10874;49.452;11.050;2023-04-03T01:40:06;3.40;;;1.90;;
21426;SDS011;10874;49.452;11.050;2023-04-03T01:42:33;1.63;;;1.53;;
21426;SDS011;10874;49.452;11.050;2023-04-03T01:45:00;1.80;;;1.40;;
21426;SDS011;10874;49.452;11.050;2023-04-03T01:47:27;1.63;;;1.53;;
21426;SDS011;10874;49.452;11.050;2023-04-03T01:49:54;1.70;;;1.60;;
21426;SDS011;10874;49.452;11.050;2023-04-03T01:52:20;2.13;;;1.67;;
21426;SDS011;10874;49.452;11.050;2023-04-03T01:54:47;1.60;;;1.50;;
21426;SDS011;10874;49.452;11.050;2023-04-03T01:57:14;1.93;;;1.73;;
21426;SDS011;10874;49.452;11.050;2023-04-03T01:59:41;1.70;;;1.60;;
21426;SDS011;10874;49.452;11.050;2023-04-03T02:02:08;2.63;;;1.70;;
21426;SDS011;10874;49.452;11.050;2023-04-03T02:04:35;1.83;;;1.73;;
21426;SDS011;10874;49.452;11.050;2023-04-03T02:07:02;2.97;;;1.70;;
21426;SDS011;10874;49.452;11.050;2023-04-03T02:09:28;1.67;;;1.47;;
21426;SDS011;10874;49.452;11.050;2023-04-03T02:11:55;1.70;;;1.57;;
21426;SDS011;10874;49.452;11.050;2023-04-03T02:14:22;1.90;;;1.60;;
21426;SDS011;10874;49.452;11.050;2023-04-03T02:16:50;1.63;;;1.53;;
21426;SDS011;10874;49.452;11.050;2023-04-03T02:19:17;1.90;;;1.47;;
21426;SDS011;10874;49.452;11.050;2023-04-03T02:21:43;1.87;;;1.47;;
21426;SDS011;10874;49.452;11.050;2023-04-03T02:24:10;1.90;;;1.70;;
21426;SDS011;10874;49.452;11.050;2023-04-03T02:26:37;1.63;;;1.30;;
21426;SDS011;10874;49.452;11.050;2023-04-03T02:29:04;1.70;;;1.60;;
21426;SDS011;10874;49.452;11.050;2023-04-03T02:31:30;2.63;;;1.80;;
21426;SDS011;10874;49.452;11.050;2023-04-03T02:34:00;1.70;;;1.60;;
21426;SDS011;10874;49.452;11.050;2023-04-03T02:36:27;2.63;;;1.47;;
21426;SDS011;10874;49.452;11.050;2023-04-03T02:38:57;1.60;;;1.50;;
21426;SDS011;10874;49.452;11.050;2023-04-03T02:41:24;1.60;;;1.50;;
21426;SDS011;10874;49.452;11.050;2023-04-03T02:43:55;2.00;;;1.70;;
21426;SDS011;10874;49.452;11.050;2023-04-03T02:46:21;2.67;;;2.03;;
21426;SDS011;10874;49.452;11.050;2023-04-03T02:48:48;3.57;;;2.23;;
21426;SDS011;10874;49.452;11.050;2023-04-03T02:51:15;1.93;;;1.57;;
21426;SDS011;10874;49.452;11.050;2023-04-03T02:53:42;1.87;;;1.50;;
21426;SDS011;10874;49.452;11.050;2023-04-03T02:56:13;2.10;;;1.50;;
21426;SDS011;10874;49.452;11.050;2023-04-03T02:58:40;3.23;;;1.83;;
21426;SDS011;10874;49.452;11.050;2023-04-03T03:01:08;2.93;;;1.53;;
21426;SDS011;10874;49.452;11.050;2023-04-03T03:03:35;2.13;;;1.90;;
21426;SDS011;10874;49.452;11.050;2023-04-03T03:06:05;2.00;;;1.80;;
21426;SDS011;10874;49.452;11.050;2023-04-03T03:08:32;1.77;;;1.63;;
21426;SDS011;10874;49.452;11.050;2023-04-03T03:10:59;2.23;;;1.50;;
21426;SDS011;10874;49.452;11.050;2023-04-03T03:13:27;2.03;;;1.77;;
21426;SDS011;10874;49.452;11.050;2023-04-03T03:15:54;2.90;;;2.10;;
21426;SDS011;10874;49.452;11.050;2023-04-03T03:18:21;2.63;;;1.60;;
21426;SDS011;10874;49.452;11.050;2023-04-03T03:20:58;1.70;;;1.60;;
21426;SDS011;10874;49.452;11.050;2023-04-03T03:23:25;2.83;;;1.80;;
21426;SDS011;10874;49.452;11.050;2023-04-03T03:26:00;3.53;;;1.80;;
21426;SDS011;10874;49.452;11.050;2023-04-03T03:28:27;1.73;;;1.60;;
21426;SDS011;10874;49.452;11.050;2023-04-03T03:30:54;2.50;;;1.57;;
21426;SDS011;10874;49.452;11.050;2023-04-03T03:33:22;1.70;;;1.60;;
21426;SDS011;10874;49.452;11.050;2023-04-03T03:35:49;2.70;;;1.87;;
21426;SDS011;10874;49.452;11.050;2023-04-03T03:38:16;1.90;;;1.70;;
21426;SDS011;10874;49.452;11.050;2023-04-03T03:40:43;3.17;;;1.93;;
21426;SDS011;10874;49.452;11.050;2023-04-03T03:43:09;2.87;;;1.90;;
21426;SDS011;10874;49.452;11.050;2023-04-03T03:45:36;4.07;;;2.13;;
21426;SDS011;10874;49.452;11.050;2023-04-03T03:48:03;3.10;;;2.10;;
21426;SDS011;10874;49.452;11.050;2023-04-03T03:50:30;2.57;;;1.87;;
21426;SDS011;10874;49.452;11.050;2023-04-03T03:52:57;2.53;;;1.90;;
21426;SDS011;10874;49.452;11.050;2023-04-03T03:55:24;2.50;;;2.10;;
21426;SDS011;10874;49.452;11.050;2023-04-03T03:57:53;2.37;;;1.97;;
21426;SDS011;10874;49.452;11.050;2023-04-03T04:00:21;4.00;;;2.20;;
21426;SDS011;10874;49.452;11.050;2023-04-03T04:02:53;3.50;;;2.00;;
21426;SDS011;10874;49.452;11.050;2023-04-03T04:05:23;2.30;;;2.07;;
21426;SDS011;10874;49.452;11.050;2023-04-03T04:07:51;3.60;;;2.47;;
21426;SDS011;10874;49.452;11.050;2023-04-03T04:10:18;2.70;;;2.33;;
21426;SDS011;10874;49.452;11.050;2023-04-03T04:12:46;5.17;;;2.73;;
21426;SDS011;10874;49.452;11.050;2023-04-03T04:15:13;2.33;;;2.00;;
21426;SDS011;10874;49.452;11.050;2023-04-03T04:17:39;2.60;;;2.40;;
21426;SDS011;10874;49.452;11.050;2023-04-03T04:20:10;2.73;;;2.27;;
21426;SDS011;10874;49.452;11.050;2023-04-03T04:22:38;3.87;;;2.33;;
21426;SDS011;10874;49.452;11.050;2023-04-03T04:25:05;3.47;;;3.10;;
21426;SDS011;10874;49.452;11.050;2023-04-03T04:27:33;3.30;;;2.53;;
21426;SDS011;10874;49.452;11.050;2023-04-03T04:29:59;2.90;;;2.10;;
21426;SDS011;10874;49.452;11.050;2023-04-03T04:32:27;4.10;;;2.70;;
21426;SDS011;10874;49.452;11.050;2023-04-03T04:34:54;3.67;;;2.63;;
21426;SDS011;10874;49.452;11.050;2023-04-03T04:37:21;4.07;;;2.53;;
21426;SDS011;10874;49.452;11.050;2023-04-03T04:39:47;3.20;;;2.30;;
21426;SDS011;10874;49.452;11.050;2023-04-03T04:42:14;4.33;;;2.60;;
21426;SDS011;10874;49.452;11.050;2023-04-03T04:44:44;3.10;;;2.23;;
21426;SDS011;10874;49.452;11.050;2023-04-03T04:47:13;3.43;;;2.50;;
21426;SDS011;10874;49.452;11.050;2023-04-03T04:49:40;3.93;;;2.57;;
21426;SDS011;10874;49.452;11.050;2023-04-03T04:52:07;3.97;;;2.77;;
21426;SDS011;10874;49.452;11.050;2023-04-03T04:54:34;7.73;;;3.10;;
21426;SDS011;10874;49.452;11.050;2023-04-03T04:57:01;3.73;;;2.50;;
21426;SDS011;10874;49.452;11.050;2023-04-03T04:59:29;6.03;;;2.73;;
21426;SDS011;10874;49.452;11.050;2023-04-03T05:01:57;5.47;;;2.30;;
21426;SDS011;10874;49.452;11.050;2023-04-03T05:04:25;3.20;;;2.30;;
21426;SDS011;10874;49.452;11.050;2023-04-03T05:06:58;6.40;;;2.63;;
21426;SDS011;10874;49.452;11.050;2023-04-03T05:09:27;5.77;;;2.67;;
21426;SDS011;10874;49.452;11.050;2023-04-03T05:11:55;5.23;;;2.47;;
21426;SDS011;10874;49.452;11.050;2023-04-03T05:14:25;4.10;;;2.50;;
21426;SDS011;10874;49.452;11.050;2023-04-03T05:16:54;5.17;;;2.60;;
21426;SDS011;10874;49.452;11.050;2023-04-03T05:19:24;3.73;;;2.63;;
21426;SDS011;10874;49.452;11.050;2023-04-03T05:21:51;3.80;;;2.50;;
21426;SDS011;10874;49.452;11.050;2023-04-03T05:24:18;4.57;;;2.50;;
21426;SDS011;10874;49.452;11.050;2023-04-03T05:26:45;4.40;;;2.70;;
21426;SDS011;10874;49.452;11.050;2023-04-03T05:29:13;4.40;;;2.57;;
21426;SDS011;10874;49.452;11.050;2023-04-03T05:31:40;2.67;;;2.23;;
21426;SDS011;10874;49.452;11.050;2023-04-03T05:34:09;3.70;;;2.93;;
21426;SDS011;10874;49.452;11.050;2023-04-03T05:36:37;3.97;;;3.30;;
21426;SDS011;10874;49.452;11.050;2023-04-03T05:39:07;5.57;;;3.20;;
21426;SDS011;10874;49.452;11.050;2023-04-03T05:41:37;4.10;;;2.97;;
21426;SDS011;10874;49.452;11.050;2023-04-03T05:44:04;5.00;;;2.70;;
21426;SDS011;10874;49.452;11.050;2023-04-03T05:46:31;4.00;;;2.83;;
21426;SDS011;10874;49.452;11.050;2023-04-03T05:49:02;3.93;;;2.50;;
21426;SDS011;10874;49.452;11.050;2023-04-03T05:51:33;4.33;;;2.27;;
21426;SDS011;10874;49.452;11.050;2023-04-03T05:56:41;7.53;;;3.60;;
21426;SDS011;10874;49.452;11.050;2023-04-03T05:59:08;4.23;;;2.70;;
21426;SDS011;10874;49.452;11.050;2023-04-03T06:01:35;4.33;;;2.47;;
21426;SDS011;10874;49.452;11.050;2023-04-03T06:04:01;2.50;;;2.30;;
21426;SDS011;10874;49.452;11.050;2023-04-03T06:06:42;4.73;;;2.30;;
21426;SDS011;10874;49.452;11.050;2023-04-03T06:09:09;2.40;;;2.10;;
21426;SDS011;10874;49.452;11.050;2023-04-03T06:11:36;5.00;;;2.27;;
21426;SDS011;10874;49.452;11.050;2023-04-03T06:14:03;3.50;;;2.10;;
21426;SDS011;10874;49.452;11.050;2023-04-03T06:16:30;3.37;;;2.20;;
21426;SDS011;10874;49.452;11.050;2023-04-03T06:18:56;3.53;;;2.50;;
21426;SDS011;10874;49.452;11.050;2023-04-03T06:21:23;3.50;;;2.37;;
21426;SDS011;10874;49.452;11.050;2023-04-03T06:23:50;3.80;;;2.17;;
21426;SDS011;10874;49.452;11.050;2023-04-03T06:26:18;3.13;;;2.27;;
21426;SDS011;10874;49.452;11.050;2023-04-03T06:28:44;4.10;;;2.53;;
21426;SDS011;10874;49.452;11.050;2023-04-03T06:31:11;5.23;;;2.60;;
21426;SDS011;10874;49.452;11.050;2023-04-03T06:33:38;4.57;;;2.57;;
21426;SDS011;10874;49.452;11.050;2023-04-03T06:36:05;2.87;;;2.13;;
21426;SDS011;10874;49.452;11.050;2023-04-03T06:38:32;3.33;;;2.40;;
21426;SDS011;10874;49.452;11.050;2023-04-03T06:40:59;6.37;;;3.33;;
21426;SDS011;10874;49.452;11.050;2023-04-03T06:43:26;4.10;;;3.10;;
21426;SDS011;10874;49.452;11.050;2023-04-03T06:45:53;5.27;;;2.97;;
21426;SDS011;10874;49.452;11.050;2023-04-03T06:48:20;5.10;;;2.63;;
21426;SDS011;10874;49.452;11.050;2023-04-03T06:50:47;3.03;;;2.63;;
21426;SDS011;10874;49.452;11.050;2023-04-03T06:53:14;4.90;;;2.77;;
21426;SDS011;10874;49.452;11.050;2023-04-03T06:55:41;6.33;;;3.40;;
21426;SDS011;10874;49.452;11.050;2023-04-03T06:58:08;3.87;;;2.73;;
21426;SDS011;10874;49.452;11.050;2023-04-03T07:00:34;5.87;;;3.73;;
21426;SDS011;10874;49.452;11.050;2023-04-03T07:03:01;3.43;;;2.57;;
21426;SDS011;10874;49.452;11.050;2023-04-03T07:05:28;5.33;;;2.60;;
21426;SDS011;10874;49.452;11.050;2023-04-03T07:07:54;4.70;;;3.00;;
21426;SDS011;10874;49.452;11.050;2023-04-03T07:10:22;4.00;;;3.00;;
21426;SDS011;10874;49.452;11.050;2023-04-03T07:12:49;3.67;;;2.30;;
21426;SDS011;10874;49.452;11.050;2023-04-03T07:15:16;2.77;;;2.20;;
21426;SDS011;10874;49.452;11.050;2023-04-03T07:17:43;4.17;;;2.80;;
21426;SDS011;10874;49.452;11.050;2023-04-03T07:20:10;5.87;;;2.90;;
21426;SDS011;10874;49.452;11.050;2023-04-03T07:22:37;5.57;;;2.77;;
21426;SDS011;10874;49.452;11.050;2023-04-03T07:25:04;4.57;;;2.93;;
21426;SDS011;10874;49.452;11.050;2023-04-03T07:27:33;4.47;;;2.30;;
21426;SDS011;10874;49.452;11.050;2023-04-03T07:30:00;3.77;;;2.87;;
21426;SDS011;10874;49.452;11.050;2023-04-03T07:32:27;3.63;;;2.50;;
21426;SDS011;10874;49.452;11.050;2023-04-03T07:34:55;15.17;;;4.80;;
21426;SDS011;10874;49.452;11.050;2023-04-03T07:37:22;6.80;;;4.70;;
21426;SDS011;10874;49.452;11.050;2023-04-03T07:39:48;3.60;;;2.53;;
21426;SDS011;10874;49.452;11.050;2023-04-03T07:42:15;3.43;;;2.83;;
21426;SDS011;10874;49.452;11.050;2023-04-03T07:44:43;4.87;;;3.10;;
21426;SDS011;10874;49.452;11.050;2023-04-03T07:47:09;4.23;;;2.70;;
21426;SDS011;10874;49.452;11.050;2023-04-03T07:49:36;3.70;;;2.70;;
21426;SDS011;10874;49.452;11.050;2023-04-03T07:52:06;6.33;;;3.43;;
21426;SDS011;10874;49.452;11.050;2023-04-03T07:54:35;8.23;;;5.13;;
21426;SDS011;10874;49.452;11.050;2023-04-03T07:57:02;4.97;;;2.83;;
21426;SDS011;10874;49.452;11.050;2023-04-03T07:59:28;4.23;;;3.10;;
21426;SDS011;10874;49.452;11.050;2023-04-03T08:01:55;8.33;;;4.83;;
21426;SDS011;10874;49.452;11.050;2023-04-03T08:04:22;6.67;;;3.87;;
21426;SDS011;10874;49.452;11.050;2023-04-03T08:06:49;4.10;;;3.10;;
21426;SDS011;10874;49.452;11.050;2023-04-03T08:09:16;4.20;;;2.93;;
21426;SDS011;10874;49.452;11.050;2023-04-03T08:11:43;3.90;;;2.87;;
21426;SDS011;10874;49.452;11.050;2023-04-03T08:14:11;5.10;;;2.97;;
21426;SDS011;10874;49.452;11.050;2023-04-03T08:16:43;4.13;;;2.50;;
21426;SDS011;10874;49.452;11.050;2023-04-03T08:19:10;3.27;;;2.77;;
21426;SDS011;10874;49.452;11.050;2023-04-03T08:21:50;4.57;;;2.30;;
21426;SDS011;10874;49.452;11.050;2023-04-03T08:24:17;2.73;;;2.53;;
21426;SDS011;10874;49.452;11.050;2023-04-03T08:26:44;5.13;;;2.37;;
21426;SDS011;10874;49.452;11.050;2023-04-03T08:29:11;5.33;;;2.67;;
21426;SDS011;10874;49.452;11.050;2023-04-03T08:31:37;4.53;;;3.10;;
21426;SDS011;10874;49.452;11.050;2023-04-03T08:34:05;5.27;;;3.23;;
21426;SDS011;10874;49.452;11.050;2023-04-03T08:36:32;4.97;;;3.17;;
21426;SDS011;10874;49.452;11.050;2023-04-03T08:38:59;6.93;;;3.40;;
21426;SDS011;10874;49.452;11.050;2023-04-03T08:47:18;3.90;;;2.60;;
21426;SDS011;10874;49.452;11.050;2023-04-03T08:49:27;4.90;;;3.93;;
21426;SDS011;10874;49.452;11.050;2023-04-03T08:51:55;6.23;;;4.27;;
21426;SDS011;10874;49.452;11.050;2023-04-03T08:57:09;3.10;;;1.97;;
21426;SDS011;10874;49.452;11.050;2023-04-03T08:59:37;3.30;;;2.43;;
21426;SDS011;10874;49.452;11.050;2023-04-03T09:02:10;3.83;;;1.70;;
21426;SDS011;10874;49.452;11.050;2023-04-03T09:04:42;2.50;;;1.73;;
21426;SDS011;10874;49.452;11.050;2023-04-03T09:07:13;2.77;;;1.70;;
21426;SDS011;10874;49.452;11.050;2023-04-03T09:09:42;2.23;;;2.00;;
21426;SDS011;10874;49.452;11.050;2023-04-03T09:14:39;3.73;;;1.80;;
21426;SDS011;10874;49.452;11.050;2023-04-03T09:17:21;3.57;;;2.10;;
21426;SDS011;10874;49.452;11.050;2023-04-03T09:19:55;3.33;;;2.30;;
21426;SDS011;10874;49.452;11.050;2023-04-03T09:22:24;3.10;;;2.10;;
21426;SDS011;10874;49.452;11.050;2023-04-03T09:24:55;3.60;;;2.03;;
21426;SDS011;10874;49.452;11.050;2023-04-03T09:27:23;3.93;;;1.90;;
21426;SDS011;10874;49.452;11.050;2023-04-03T09:29:52;2.23;;;1.77;;
21426;SDS011;10874;49.452;11.050;2023-04-03T09:32:27;2.30;;;2.07;;
21426;SDS011;10874;49.452;11.050;2023-04-03T09:34:56;2.93;;;1.90;;
21426;SDS011;10874;49.452;11.050;2023-04-03T09:37:38;2.50;;;1.80;;
21426;SDS011;10874;49.452;11.050;2023-04-03T09:40:27;5.47;;;2.17;;
21426;SDS011;10874;49.452;11.050;2023-04-03T09:42:58;3.10;;;2.10;;
21426;SDS011;10874;49.452;11.050;2023-04-03T09:45:31;3.10;;;1.80;;
21426;SDS011;10874;49.452;11.050;2023-04-03T09:53:35;2.20;;;1.60;;
21426;SDS011;10874;49.452;11.050;2023-04-03T09:56:04;3.07;;;1.47;;
21426;SDS011;10874;49.452;11.050;2023-04-03T09:58:38;5.37;;;1.87;;
21426;SDS011;10874;49.452;11.050;2023-04-03T10:01:27;2.27;;;1.80;;
21426;SDS011;10874;49.452;11.050;2023-04-03T10:06:31;3.33;;;1.83;;
21426;SDS011;10874;49.452;11.050;2023-04-03T10:08:59;3.97;;;2.00;;
21426;SDS011;10874;49.452;11.050;2023-04-03T10:11:27;2.73;;;1.70;;
21426;SDS011;10874;49.452;11.050;2023-04-03T10:13:54;2.00;;;1.77;;
21426;SDS011;10874;49.452;11.050;2023-04-03T10:16:27;2.07;;;1.87;;
21426;SDS011;10874;49.452;11.050;2023-04-03T10:18:58;2.97;;;1.70;;
21426;SDS011;10874;49.452;11.050;2023-04-03T10:29:04;2.63;;;1.93;;
21426;SDS011;10874;49.452;11.050;2023-04-03T10:31:36;1.70;;;1.27;;
21426;SDS011;10874;49.452;11.050;2023-04-03T10:34:14;2.17;;;1.60;;
21426;SDS011;10874;49.452;11.050;2023-04-03T10:42:18;3.20;;;1.70;;
21426;SDS011;10874;49.452;11.050;2023-04-03T10:47:18;3.93;;;2.00;;
21426;SDS011;10874;49.452;11.050;2023-04-03T10:50:00;3.63;;;2.07;;
21426;SDS011;10874;49.452;11.050;2023-04-03T10:52:31;2.87;;;1.87;;
21426;SDS011;10874;49.452;11.050;2023-04-03T10:55:10;2.40;;;1.60;;
21426;SDS011;10874;49.452;11.050;2023-04-03T10:57:42;2.27;;;1.40;;
21426;SDS011;10874;49.452;11.050;2023-04-03T11:00:14;1.80;;;1.50;;
21426;SDS011;10874;49.452;11.050;2023-04-03T11:03:00;2.37;;;1.50;;
21426;SDS011;10874;49.452;11.050;2023-04-03T11:05:45;2.00;;;1.50;;
21426;SDS011;10874;49.452;11.050;2023-04-03T11:08:21;2.97;;;1.80;;
21426;SDS011;10874;49.452;11.050;2023-04-03T11:10:50;2.20;;;1.43;;
21426;SDS011;10874;49.452;11.050;2023-04-03T11:13:21;2.07;;;1.80;;
21426;SDS011;10874;49.452;11.050;2023-04-03T11:15:49;1.77;;;1.67;;
21426;SDS011;10874;49.452;11.050;2023-04-03T11:18:19;3.10;;;1.97;;
21426;SDS011;10874;49.452;11.050;2023-04-03T11:20:57;1.77;;;1.53;;
21426;SDS011;10874;49.452;11.050;2023-04-03T11:23:25;3.30;;;2.03;;
21426;SDS011;10874;49.452;11.050;2023-04-03T11:26:12;2.73;;;1.50;;
21426;SDS011;10874;49.452;11.050;2023-04-03T11:28:39;3.70;;;1.43;;
21426;SDS011;10874;49.452;11.050;2023-04-03T11:33:51;1.63;;;1.30;;
21426;SDS011;10874;49.452;11.050;2023-04-03T11:36:23;1.77;;;1.60;;
21426;SDS011;10874;49.452;11.050;2023-04-03T11:39:04;2.80;;;1.87;;
21426;SDS011;10874;49.452;11.050;2023-04-03T11:41:34;2.03;;;1.77;;
21426;SDS011;10874;49.452;11.050;2023-04-03T11:44:02;2.77;;;1.70;;
21426;SDS011;10874;49.452;11.050;2023-04-03T11:52:00;2.03;;;1.50;;
21426;SDS011;10874;49.452;11.050;2023-04-03T11:54:43;3.10;;;1.63;;
21426;SDS011;10874;49.452;11.050;2023-04-03T11:59:57;2.87;;;1.70;;
21426;SDS011;10874;49.452;11.050;2023-04-03T12:02:36;1.70;;;1.60;;
21426;SDS011;10874;49.452;11.050;2023-04-03T12:05:29;2.37;;;1.80;;
21426;SDS011;10874;49.452;11.050;2023-04-03T12:10:41;2.47;;;1.47;;
21426;SDS011;10874;49.452;11.050;2023-04-03T12:13:15;1.57;;;1.30;;
21426;SDS011;10874;49.452;11.050;2023-04-03T12:15:50;2.97;;;1.63;;
21426;SDS011;10874;49.452;11.050;2023-04-03T12:18:30;1.40;;;1.30;;
21426;SDS011;10874;49.452;11.050;2023-04-03T12:21:00;3.13;;;1.80;;
21426;SDS011;10874;49.452;11.050;2023-04-03T12:23:32;4.33;;;1.60;;
21426;SDS011;10874;49.452;11.050;2023-04-03T12:26:00;1.80;;;1.57;;
21426;SDS011;10874;49.452;11.050;2023-04-03T12:28:27;1.73;;;1.57;;
21426;SDS011;10874;49.452;11.050;2023-04-03T12:30:54;1.53;;;1.40;;
21426;SDS011;10874;49.452;11.050;2023-04-03T12:36:08;1.97;;;1.47;;
21426;SDS011;10874;49.452;11.050;2023-04-03T12:38:41;3.53;;;1.70;;
21426;SDS011;10874;49.452;11.050;2023-04-03T12:43:49;2.73;;;1.70;;
21426;SDS011;10874;49.452;11.050;2023-04-03T12:46:18;3.33;;;1.60;;
21426;SDS011;10874;49.452;11.050;2023-04-03T12:51:18;2.10;;;1.50;;
21426;SDS011;10874;49.452;11.050;2023-04-03T12:53:46;1.77;;;1.67;;
21426;SDS011;10874;49.452;11.050;2023-04-03T12:56:29;2.87;;;1.60;;
21426;SDS011;10874;49.452;11.050;2023-04-03T12:59:15;3.23;;;1.80;;
21426;SDS011;10874;49.452;11.050;2023-04-03T13:01:43;1.83;;;1.50;;
21426;SDS011;10874;49.452;11.050;2023-04-03T13:04:10;4.90;;;1.90;;
21426;SDS011;10874;49.452;11.050;2023-04-03T13:06:39;2.50;;;1.70;;
21426;SDS011;10874;49.452;11.050;2023-04-03T13:09:14;1.77;;;1.30;;
21426;SDS011;10874;49.452;11.050;2023-04-03T13:11:44;1.83;;;1.43;;
21426;SDS011;10874;49.452;11.050;2023-04-03T13:14:15;1.90;;;1.30;;
21426;SDS011;10874;49.452;11.050;2023-04-03T13:17:09;1.67;;;1.47;;
21426;SDS011;10874;49.452;11.050;2023-04-03T13:19:30;4.03;;;1.67;;
21426;SDS011;10874;49.452;11.050;2023-04-03T13:22:01;1.73;;;1.50;;
21426;SDS011;10874;49.452;11.050;2023-04-03T13:24:30;3.47;;;1.73;;
21426;SDS011;10874;49.452;11.050;2023-04-03T13:26:57;1.60;;;1.40;;
21426;SDS011;10874;49.452;11.050;2023-04-03T13:29:25;3.07;;;1.77;;
21426;SDS011;10874;49.452;11.050;2023-04-03T13:31:57;1.70;;;1.50;;
21426;SDS011;10874;49.452;11.050;2023-04-03T13:34:25;1.63;;;1.50;;
21426;SDS011;10874;49.452;11.050;2023-04-03T13:39:21;2.73;;;1.90;;
21426;SDS011;10874;49.452;11.050;2023-04-03T13:41:49;2.93;;;1.93;;
21426;SDS011;10874;49.452;11.050;2023-04-03T13:46:50;1.53;;;1.40;;
21426;SDS011;10874;49.452;11.050;2023-04-03T13:49:36;2.87;;;1.73;;
21426;SDS011;10874;49.452;11.050;2023-04-03T13:52:22;1.73;;;1.40;;
21426;SDS011;10874;49.452;11.050;2023-04-03T13:54:51;4.10;;;2.10;;
21426;SDS011;10874;49.452;11.050;2023-04-03T13:57:19;2.97;;;1.70;;
21426;SDS011;10874;49.452;11.050;2023-04-03T13:59:47;2.77;;;1.60;;
21426;SDS011;10874;49.452;11.050;2023-04-03T14:02:22;2.03;;;1.70;;
21426;SDS011;10874;49.452;11.050;2023-04-03T14:04:51;2.07;;;1.50;;
21426;SDS011;10874;49.452;11.050;2023-04-03T14:07:19;2.40;;;1.70;;
21426;SDS011;10874;49.452;11.050;2023-04-03T14:09:48;2.17;;;1.40;;
21426;SDS011;10874;49.452;11.050;2023-04-03T14:12:17;2.40;;;1.80;;
21426;SDS011;10874;49.452;11.050;2023-04-03T14:14:57;2.17;;;1.73;;
21426;SDS011;10874;49.452;11.050;2023-04-03T14:17:25;4.17;;;2.00;;
21426;SDS011;10874;49.452;11.050;2023-04-03T14:19:54;2.47;;;1.73;;
21426;SDS011;10874;49.452;11.050;2023-04-03T14:22:24;2.43;;;1.40;;
21426;SDS011;10874;49.452;11.050;2023-04-03T14:24:51;1.53;;;1.43;;
21426;SDS011;10874;49.452;11.050;2023-04-03T14:27:20;1.87;;;1.53;;
21426;SDS011;10874;49.452;11.050;2023-04-03T14:29:47;2.20;;;1.63;;
21426;SDS011;10874;49.452;11.050;2023-04-03T14:32:14;4.73;;;1.83;;
21426;SDS011;10874;49.452;11.050;2023-04-03T14:34:41;2.07;;;1.70;;
21426;SDS011;10874;49.452;11.050;2023-04-03T14:37:10;2.23;;;1.70;;
21426;SDS011;10874;49.452;11.050;2023-04-03T14:39:37;2.53;;;1.40;;
21426;SDS011;10874;49.452;11.050;2023-04-03T14:42:04;2.33;;;1.67;;
21426;SDS011;10874;49.452;11.050;2023-04-03T14:44:30;2.10;;;1.60;;
21426;SDS011;10874;49.452;11.050;2023-04-03T14:46:57;3.63;;;1.70;;
21426;SDS011;10874;49.452;11.050;2023-04-03T14:49:25;2.33;;;1.67;;
21426;SDS011;10874;49.452;11.050;2023-04-03T14:51:54;2.27;;;1.70;;
21426;SDS011;10874;49.452;11.050;2023-04-03T14:54:21;2.33;;;1.80;;
21426;SDS011;10874;49.452;11.050;2023-04-03T14:56:54;2.80;;;1.60;;
21426;SDS011;10874;49.452;11.050;2023-04-03T14:59:22;2.33;;;1.63;;
21426;SDS011;10874;49.452;11.050;2023-04-03T15:01:48;2.57;;;1.37;;
21426;SDS011;10874;49.452;11.050;2023-04-03T15:04:19;1.87;;;1.43;;
21426;SDS011;10874;49.452;11.050;2023-04-03T15:06:46;1.50;;;1.40;;
21426;SDS011;10874;49.452;11.050;2023-04-03T15:09:21;3.27;;;1.93;;
21426;SDS011;10874;49.452;11.050;2023-04-03T15:11:49;2.90;;;1.50;;
21426;SDS011;10874;49.452;11.050;2023-04-03T15:14:16;3.63;;;1.70;;
21426;SDS011;10874;49.452;11.050;2023-04-03T15:17:03;2.30;;;1.43;;
21426;SDS011;10874;49.452;11.050;2023-04-03T15:19:35;2.17;;;1.70;;
21426;SDS011;10874;49.452;11.050;2023-04-03T15:22:03;1.83;;;1.57;;
21426;SDS011;10874;49.452;11.050;2023-04-03T15:24:30;2.93;;;1.90;;
21426;SDS011;10874;49.452;11.050;2023-04-03T15:26:56;1.93;;;1.70;;
21426;SDS011;10874;49.452;11.050;2023-04-03T15:29:23;2.20;;;1.60;;
21426;SDS011;10874;49.452;11.050;2023-04-03T15:31:50;2.77;;;2.07;;
21426;SDS011;10874;49.452;11.050;2023-04-03T15:34:20;2.13;;;2.03;;
21426;SDS011;10874;49.452;11.050;2023-04-03T15:36:49;2.23;;;1.60;;
21426;SDS011;10874;49.452;11.050;2023-04-03T15:39:16;2.83;;;1.70;;
21426;SDS011;10874;49.452;11.050;2023-04-03T15:41:42;4.00;;;1.83;;
21426;SDS011;10874;49.452;11.050;2023-04-03T15:44:10;2.37;;;1.70;;
21426;SDS011;10874;49.452;11.050;2023-04-03T15:46:37;2.37;;;1.43;;
21426;SDS011;10874;49.452;11.050;2023-04-03T15:49:05;2.90;;;1.90;;
21426;SDS011;10874;49.452;11.050;2023-04-03T15:51:32;2.93;;;1.30;;
21426;SDS011;10874;49.452;11.050;2023-04-03T15:53:58;4.20;;;2.03;;
21426;SDS011;10874;49.452;11.050;2023-04-03T15:56:25;2.23;;;1.60;;